sensor_id;sensor_type;location;lat;lon;timestamp;pressure;altitude;pressure_sealevel;temperature;humidity
23016;BME280;11674;52.428;13.584;2023-05-19T00:03:19;102438.22;;;11.82;47.70
23016;BME280;11674;52.428;13.584;2023-05-19T00:08:29;102445.69;;;11.76;47.62
23016;BME280;11674;52.428;13.584;2023-05-19T00:13:44;102445.84;;;11.70;47.89
23016;BME280;11674;52.428;13.584;2023-05-19T00:18:51;102453.19;;;11.59;47.86
23016;BME280;11674;52.428;13.584;2023-05-19T00:23:58;102449.16;;;11.50;48.00
23016;BME280;11674;52.428;13.584;2023-05-19T00:29:05;102454.63;;;11.45;47.91
23016;BME280;11674;52.428;13.584;2023-05-19T00:34:12;102449.50;;;11.37;48.22
23016;BME280;11674;52.428;13.584;2023-05-19T00:39:19;102445.03;;;11.36;48.21
23016;BME280;11674;52.428;13.584;2023-05-19T00:44:26;102439.94;;;11.28;48.43
23016;BME280;11674;52.428;13.584;2023-05-19T00:49:34;102457.25;;;11.19;48.42
23016;BME280;11674;52.428;13.584;2023-05-19T00:54:43;102445.72;;;11.10;48.60
23016;BME280;11674;52.428;13.584;2023-05-19T00:59:50;102452.19;;;10.99;48.64
23016;BME280;11674;52.428;13.584;2023-05-19T01:04:58;102455.06;;;10.88;48.95
23016;BME280;11674;52.428;13.584;2023-05-19T01:10:06;102453.28;;;10.82;48.95
23016;BME280;11674;52.428;13.584;2023-05-19T01:15:14;102449.81;;;10.75;49.08
23016;BME280;11674;52.428;13.584;2023-05-19T01:26:08;102439.38;;;10.65;49.43
23016;BME280;11674;52.428;13.584;2023-05-19T01:31:20;102433.88;;;10.54;49.55
23016;BME280;11674;52.428;13.584;2023-05-19T01:36:29;102443.47;;;10.46;49.68
23016;BME280;11674;52.428;13.584;2023-05-19T01:41:40;102441.69;;;10.40;49.91
23016;BME280;11674;52.428;13.584;2023-05-19T01:46:48;102454.88;;;10.33;49.93
23016;BME280;11674;52.428;13.584;2023-05-19T01:51:57;102449.06;;;10.35;49.90
23016;BME280;11674;52.428;13.584;2023-05-19T01:57:35;102440.75;;;10.35;50.29
23016;BME280;11674;52.428;13.584;2023-05-19T02:02:56;102442.09;;;10.32;50.33
23016;BME280;11674;52.428;13.584;2023-05-19T02:08:29;102447.25;;;10.29;50.30
23016;BME280;11674;52.428;13.584;2023-05-19T02:13:42;102445.59;;;10.28;50.30
23016;BME280;11674;52.428;13.584;2023-05-19T02:18:49;102449.69;;;10.25;50.38
23016;BME280;11674;52.428;13.584;2023-05-19T02:23:56;102446.09;;;10.25;50.57
23016;BME280;11674;52.428;13.584;2023-05-19T02:29:03;102453.47;;;10.19;50.76
23016;BME280;11674;52.428;13.584;2023-05-19T02:34:10;102447.47;;;10.11;51.16
23016;BME280;11674;52.428;13.584;2023-05-19T02:39:17;102450.00;;;10.12;51.15
23016;BME280;11674;52.428;13.584;2023-05-19T02:44:25;102445.13;;;10.19;51.18
23016;BME280;11674;52.428;13.584;2023-05-19T02:49:31;102442.56;;;10.29;51.28
23016;BME280;11674;52.428;13.584;2023-05-19T02:54:38;102434.84;;;10.31;51.24
23016;BME280;11674;52.428;13.584;2023-05-19T02:59:45;102419.81;;;10.27;51.43
23016;BME280;11674;52.428;13.584;2023-05-19T03:04:52;102430.03;;;10.27;51.42
23016;BME280;11674;52.428;13.584;2023-05-19T03:09:59;102432.59;;;10.17;51.66
23016;BME280;11674;52.428;13.584;2023-05-19T03:15:07;102427.31;;;10.15;51.71
23016;BME280;11674;52.428;13.584;2023-05-19T03:20:13;102439.16;;;10.11;51.79
23016;BME280;11674;52.428;13.584;2023-05-19T03:25:21;102434.28;;;10.18;51.75
23016;BME280;11674;52.428;13.584;2023-05-19T03:30:27;102441.66;;;10.24;51.76
23016;BME280;11674;52.428;13.584;2023-05-19T03:35:41;102434.00;;;10.31;51.83
23016;BME280;11674;52.428;13.584;2023-05-19T03:40:49;102432.16;;;10.36;51.80
23016;BME280;11674;52.428;13.584;2023-05-19T03:45:57;102433.94;;;10.42;51.73
23016;BME280;11674;52.428;13.584;2023-05-19T03:51:22;102436.22;;;10.45;51.96
23016;BME280;11674;52.428;13.584;2023-05-19T03:56:31;102430.03;;;10.55;51.88
23016;BME280;11674;52.428;13.584;2023-05-19T04:01:41;102438.78;;;10.63;52.01
23016;BME280;11674;52.428;13.584;2023-05-19T04:06:48;102435.38;;;10.73;52.33
23016;BME280;11674;52.428;13.584;2023-05-19T04:12:00;102437.31;;;10.89;52.28
23016;BME280;11674;52.428;13.584;2023-05-19T04:17:07;102437.06;;;11.07;52.34
23016;BME280;11674;52.428;13.584;2023-05-19T04:22:14;102434.50;;;11.38;52.18
23016;BME280;11674;52.428;13.584;2023-05-19T04:27:21;102436.94;;;11.68;52.20
23016;BME280;11674;52.428;13.584;2023-05-19T04:32:28;102434.94;;;12.06;51.79
23016;BME280;11674;52.428;13.584;2023-05-19T04:37:35;102433.94;;;12.39;51.90
23016;BME280;11674;52.428;13.584;2023-05-19T04:42:42;102430.47;;;12.53;51.66
23016;BME280;11674;52.428;13.584;2023-05-19T04:47:49;102429.44;;;12.59;51.69
23016;BME280;11674;52.428;13.584;2023-05-19T04:52:56;102433.63;;;12.62;51.48
23016;BME280;11674;52.428;13.584;2023-05-19T04:58:03;102440.31;;;12.61;51.66
23016;BME280;11674;52.428;13.584;2023-05-19T05:03:10;102439.78;;;12.64;51.94
23016;BME280;11674;52.428;13.584;2023-05-19T05:08:17;102447.34;;;12.68;51.71
23016;BME280;11674;52.428;13.584;2023-05-19T05:13:24;102436.66;;;12.87;51.94
23016;BME280;11674;52.428;13.584;2023-05-19T05:18:32;102444.03;;;12.98;51.89
23016;BME280;11674;52.428;13.584;2023-05-19T05:23:40;102442.53;;;13.17;51.97
23016;BME280;11674;52.428;13.584;2023-05-19T05:28:46;102434.88;;;13.34;51.79
23016;BME280;11674;52.428;13.584;2023-05-19T05:33:54;102448.41;;;13.57;51.77
23016;BME280;11674;52.428;13.584;2023-05-19T05:39:04;102440.72;;;13.79;51.46
23016;BME280;11674;52.428;13.584;2023-05-19T05:44:14;102439.75;;;14.05;51.48
23016;BME280;11674;52.428;13.584;2023-05-19T05:49:21;102430.31;;;14.16;51.47
23016;BME280;11674;52.428;13.584;2023-05-19T05:54:28;102436.00;;;14.36;51.44
23016;BME280;11674;52.428;13.584;2023-05-19T05:59:35;102441.34;;;14.57;51.43
23016;BME280;11674;52.428;13.584;2023-05-19T06:04:42;102442.47;;;14.61;51.00
23016;BME280;11674;52.428;13.584;2023-05-19T06:09:50;102441.09;;;14.69;51.11
23016;BME280;11674;52.428;13.584;2023-05-19T06:14:58;102436.06;;;14.71;51.09
23016;BME280;11674;52.428;13.584;2023-05-19T06:20:23;102426.03;;;14.75;51.06
23016;BME280;11674;52.428;13.584;2023-05-19T06:25:30;102431.63;;;14.80;50.92
23016;BME280;11674;52.428;13.584;2023-05-19T06:30:36;102437.78;;;14.97;50.70
23016;BME280;11674;52.428;13.584;2023-05-19T06:36:16;102432.19;;;15.17;50.61
23016;BME280;11674;52.428;13.584;2023-05-19T06:41:23;102432.47;;;15.30;50.41
23016;BME280;11674;52.428;13.584;2023-05-19T06:46:30;102441.16;;;15.49;50.27
23016;BME280;11674;52.428;13.584;2023-05-19T06:51:38;102444.75;;;15.64;50.38
23016;BME280;11674;52.428;13.584;2023-05-19T06:56:45;102438.00;;;15.80;50.06
23016;BME280;11674;52.428;13.584;2023-05-19T07:01:53;102442.72;;;15.95;50.02
23016;BME280;11674;52.428;13.584;2023-05-19T07:07:01;102438.13;;;16.19;50.02
23016;BME280;11674;52.428;13.584;2023-05-19T07:12:08;102445.88;;;16.47;49.35
23016;BME280;11674;52.428;13.584;2023-05-19T07:17:14;102432.38;;;16.59;49.07
23016;BME280;11674;52.428;13.584;2023-05-19T07:22:22;102441.03;;;16.62;48.75
23016;BME280;11674;52.428;13.584;2023-05-19T07:27:29;102445.81;;;16.57;48.86
23016;BME280;11674;52.428;13.584;2023-05-19T07:32:36;102430.94;;;16.61;48.70
23016;BME280;11674;52.428;13.584;2023-05-19T07:37:43;102429.44;;;16.74;48.67
23016;BME280;11674;52.428;13.584;2023-05-19T07:42:50;102434.41;;;16.87;48.46
23016;BME280;11674;52.428;13.584;2023-05-19T07:47:57;102430.72;;;16.91;48.09
23016;BME280;11674;52.428;13.584;2023-05-19T07:53:04;102425.53;;;17.08;47.89
23016;BME280;11674;52.428;13.584;2023-05-19T07:58:11;102420.28;;;17.30;48.06
23016;BME280;11674;52.428;13.584;2023-05-19T08:03:18;102413.94;;;17.53;47.62
23016;BME280;11674;52.428;13.584;2023-05-19T08:08:25;102420.81;;;17.66;47.55
23016;BME280;11674;52.428;13.584;2023-05-19T08:13:32;102423.09;;;17.87;47.19
23016;BME280;11674;52.428;13.584;2023-05-19T08:18:39;102415.91;;;18.00;46.98
23016;BME280;11674;52.428;13.584;2023-05-19T08:23:46;102407.31;;;18.15;46.62
23016;BME280;11674;52.428;13.584;2023-05-19T08:28:53;102411.03;;;18.29;46.60
23016;BME280;11674;52.428;13.584;2023-05-19T08:34:00;102408.63;;;18.22;46.04
23016;BME280;11674;52.428;13.584;2023-05-19T08:39:07;102405.50;;;18.24;45.91
23016;BME280;11674;52.428;13.584;2023-05-19T08:44:14;102406.16;;;18.16;45.78
23016;BME280;11674;52.428;13.584;2023-05-19T08:49:31;102407.13;;;18.30;45.67
23016;BME280;11674;52.428;13.584;2023-05-19T08:54:52;102409.28;;;18.38;45.13
23016;BME280;11674;52.428;13.584;2023-05-19T09:00:02;102407.91;;;18.54;45.26
23016;BME280;11674;52.428;13.584;2023-05-19T09:05:09;102399.22;;;19.06;44.92
23016;BME280;11674;52.428;13.584;2023-05-19T09:10:16;102387.78;;;19.48;44.51
23016;BME280;11674;52.428;13.584;2023-05-19T09:15:26;102383.44;;;19.69;43.95
23016;BME280;11674;52.428;13.584;2023-05-19T09:20:36;102369.97;;;19.79;43.46
23016;BME280;11674;52.428;13.584;2023-05-19T09:25:50;102366.22;;;19.97;43.53
23016;BME280;11674;52.428;13.584;2023-05-19T09:31:09;102361.13;;;20.13;42.53
23016;BME280;11674;52.428;13.584;2023-05-19T09:36:16;102349.03;;;20.48;42.62
23016;BME280;11674;52.428;13.584;2023-05-19T09:41:23;102353.19;;;20.50;42.77
23016;BME280;11674;52.428;13.584;2023-05-19T09:46:30;102354.63;;;20.61;42.40
23016;BME280;11674;52.428;13.584;2023-05-19T09:51:40;102349.31;;;20.82;42.12
23016;BME280;11674;52.428;13.584;2023-05-19T09:57:00;102339.94;;;20.73;40.69
23016;BME280;11674;52.428;13.584;2023-05-19T10:02:14;102337.97;;;20.73;40.30
23016;BME280;11674;52.428;13.584;2023-05-19T10:07:22;102335.50;;;20.94;40.37
23016;BME280;11674;52.428;13.584;2023-05-19T10:12:30;102332.09;;;21.36;40.19
23016;BME280;11674;52.428;13.584;2023-05-19T10:17:38;102324.44;;;21.67;39.70
23016;BME280;11674;52.428;13.584;2023-05-19T10:22:45;102325.34;;;21.76;39.03
23016;BME280;11674;52.428;13.584;2023-05-19T10:28:06;102318.19;;;21.48;38.83
23016;BME280;11674;52.428;13.584;2023-05-19T10:33:16;102321.25;;;21.60;38.96
23016;BME280;11674;52.428;13.584;2023-05-19T10:43:53;102305.28;;;22.03;38.24
23016;BME280;11674;52.428;13.584;2023-05-19T10:49:01;102305.47;;;22.06;37.58
23016;BME280;11674;52.428;13.584;2023-05-19T10:54:09;102315.00;;;21.71;37.60
23016;BME280;11674;52.428;13.584;2023-05-19T10:59:32;102296.94;;;21.89;37.24
23016;BME280;11674;52.428;13.584;2023-05-19T11:04:47;102298.50;;;22.21;36.89
23016;BME280;11674;52.428;13.584;2023-05-19T11:09:54;102304.63;;;22.23;36.85
23016;BME280;11674;52.428;13.584;2023-05-19T11:15:02;102303.25;;;21.86;36.88
23016;BME280;11674;52.428;13.584;2023-05-19T11:20:19;102299.44;;;21.52;36.94
23016;BME280;11674;52.428;13.584;2023-05-19T11:30:55;102290.97;;;21.99;36.31
23016;BME280;11674;52.428;13.584;2023-05-19T11:36:03;102297.31;;;22.13;36.33
23016;BME280;11674;52.428;13.584;2023-05-19T11:41:10;102282.28;;;21.79;36.57
23016;BME280;11674;52.428;13.584;2023-05-19T11:46:20;102272.50;;;22.10;36.66
23016;BME280;11674;52.428;13.584;2023-05-19T11:51:27;102278.53;;;22.17;35.96
23016;BME280;11674;52.428;13.584;2023-05-19T11:56:39;102280.81;;;22.07;35.75
23016;BME280;11674;52.428;13.584;2023-05-19T12:01:45;102276.00;;;22.07;36.20
23016;BME280;11674;52.428;13.584;2023-05-19T12:06:52;102284.81;;;22.06;36.16
23016;BME280;11674;52.428;13.584;2023-05-19T12:11:59;102275.84;;;22.04;36.35
23016;BME280;11674;52.428;13.584;2023-05-19T12:17:14;102271.72;;;22.52;36.12
23016;BME280;11674;52.428;13.584;2023-05-19T12:22:20;102257.53;;;22.86;35.73
23016;BME280;11674;52.428;13.584;2023-05-19T12:27:27;102269.25;;;22.51;35.90
23016;BME280;11674;52.428;13.584;2023-05-19T12:32:34;102276.19;;;22.11;35.55
23016;BME280;11674;52.428;13.584;2023-05-19T12:37:41;102274.34;;;22.06;35.79
23016;BME280;11674;52.428;13.584;2023-05-19T12:42:49;102262.72;;;22.33;35.43
23016;BME280;11674;52.428;13.584;2023-05-19T12:47:55;102260.44;;;23.15;35.10
23016;BME280;11674;52.428;13.584;2023-05-19T12:53:07;102245.75;;;23.97;34.28
23016;BME280;11674;52.428;13.584;2023-05-19T12:58:14;102238.19;;;23.43;33.96
23016;BME280;11674;52.428;13.584;2023-05-19T13:03:21;102258.75;;;22.51;34.47
23016;BME280;11674;52.428;13.584;2023-05-19T13:08:28;102265.88;;;21.98;34.87
23016;BME280;11674;52.428;13.584;2023-05-19T13:13:36;102248.75;;;22.11;34.69
23016;BME280;11674;52.428;13.584;2023-05-19T13:18:43;102248.28;;;22.52;34.19
23016;BME280;11674;52.428;13.584;2023-05-19T13:23:50;102251.19;;;22.89;34.36
23016;BME280;11674;52.428;13.584;2023-05-19T13:28:56;102248.53;;;22.84;33.88
23016;BME280;11674;52.428;13.584;2023-05-19T13:34:03;102250.69;;;22.96;34.05
23016;BME280;11674;52.428;13.584;2023-05-19T13:39:10;102240.00;;;23.47;33.69
23016;BME280;11674;52.428;13.584;2023-05-19T13:44:17;102236.13;;;23.60;33.61
23016;BME280;11674;52.428;13.584;2023-05-19T13:49:24;102236.16;;;23.52;33.37
23016;BME280;11674;52.428;13.584;2023-05-19T13:54:32;102239.69;;;22.94;33.38
23016;BME280;11674;52.428;13.584;2023-05-19T13:59:39;102246.84;;;22.92;33.74
23016;BME280;11674;52.428;13.584;2023-05-19T14:04:46;102258.63;;;23.19;33.72
23016;BME280;11674;52.428;13.584;2023-05-19T14:09:53;102250.47;;;23.18;33.46
23016;BME280;11674;52.428;13.584;2023-05-19T14:15:00;102246.59;;;23.31;33.78
23016;BME280;11674;52.428;13.584;2023-05-19T14:20:07;102238.47;;;23.21;33.35
23016;BME280;11674;52.428;13.584;2023-05-19T14:25:14;102232.00;;;23.03;33.79
23016;BME280;11674;52.428;13.584;2023-05-19T14:30:20;102250.56;;;22.75;34.17
23016;BME280;11674;52.428;13.584;2023-05-19T14:35:27;102247.47;;;23.14;33.58
23016;BME280;11674;52.428;13.584;2023-05-19T14:40:38;102235.25;;;23.97;32.70
23016;BME280;11674;52.428;13.584;2023-05-19T14:45:44;102243.44;;;23.61;32.77
23016;BME280;11674;52.428;13.584;2023-05-19T14:50:52;102253.81;;;23.20;33.47
23016;BME280;11674;52.428;13.584;2023-05-19T14:55:58;102246.19;;;23.41;33.20
23016;BME280;11674;52.428;13.584;2023-05-19T15:01:06;102251.91;;;23.32;32.97
23016;BME280;11674;52.428;13.584;2023-05-19T15:06:13;102243.59;;;23.65;33.03
23016;BME280;11674;52.428;13.584;2023-05-19T15:11:20;102227.16;;;23.79;32.42
23016;BME280;11674;52.428;13.584;2023-05-19T15:16:26;102250.03;;;22.82;33.02
23016;BME280;11674;52.428;13.584;2023-05-19T15:21:34;102244.44;;;22.56;33.25
23016;BME280;11674;52.428;13.584;2023-05-19T15:26:41;102238.56;;;22.70;33.33
23016;BME280;11674;52.428;13.584;2023-05-19T15:31:50;102250.97;;;23.03;33.06
23016;BME280;11674;52.428;13.584;2023-05-19T15:36:58;102252.59;;;22.49;33.50
23016;BME280;11674;52.428;13.584;2023-05-19T15:42:05;102238.41;;;22.07;33.62
23016;BME280;11674;52.428;13.584;2023-05-19T15:47:11;102236.44;;;21.51;33.84
23016;BME280;11674;52.428;13.584;2023-05-19T15:52:19;102241.75;;;21.44;34.25
23016;BME280;11674;52.428;13.584;2023-05-19T15:57:26;102244.41;;;21.41;34.21
23016;BME280;11674;52.428;13.584;2023-05-19T16:02:33;102239.84;;;21.23;34.50
23016;BME280;11674;52.428;13.584;2023-05-19T16:07:40;102245.06;;;21.07;34.44
23016;BME280;11674;52.428;13.584;2023-05-19T16:12:47;102237.94;;;20.79;34.87
23016;BME280;11674;52.428;13.584;2023-05-19T16:17:54;102234.31;;;21.09;34.71
23016;BME280;11674;52.428;13.584;2023-05-19T16:23:01;102234.75;;;21.42;34.47
23016;BME280;11674;52.428;13.584;2023-05-19T16:28:08;102223.31;;;21.47;34.24
23016;BME280;11674;52.428;13.584;2023-05-19T16:33:15;102220.72;;;21.20;34.65
23016;BME280;11674;52.428;13.584;2023-05-19T16:38:22;102215.25;;;21.23;34.93
23016;BME280;11674;52.428;13.584;2023-05-19T16:43:29;102216.31;;;21.44;34.37
23016;BME280;11674;52.428;13.584;2023-05-19T16:48:36;102224.72;;;21.19;35.04
23016;BME280;11674;52.428;13.584;2023-05-19T16:53:43;102230.94;;;20.99;35.07
23016;BME280;11674;52.428;13.584;2023-05-19T16:58:50;102213.75;;;21.17;35.14
23016;BME280;11674;52.428;13.584;2023-05-19T17:03:57;102217.34;;;21.48;35.13
23016;BME280;11674;52.428;13.584;2023-05-19T17:09:04;102214.06;;;21.63;35.10
23016;BME280;11674;52.428;13.584;2023-05-19T17:14:11;102221.19;;;21.52;35.38
23016;BME280;11674;52.428;13.584;2023-05-19T17:19:18;102229.78;;;21.39;35.00
23016;BME280;11674;52.428;13.584;2023-05-19T17:24:25;102230.00;;;21.12;35.38
23016;BME280;11674;52.428;13.584;2023-05-19T17:29:32;102236.00;;;20.88;35.67
23016;BME280;11674;52.428;13.584;2023-05-19T17:34:39;102239.84;;;20.70;35.61
23016;BME280;11674;52.428;13.584;2023-05-19T17:39:46;102241.72;;;20.53;35.85
23016;BME280;11674;52.428;13.584;2023-05-19T17:44:53;102248.50;;;20.30;35.83
23016;BME280;11674;52.428;13.584;2023-05-19T17:50:00;102258.50;;;20.14;35.94
23016;BME280;11674;52.428;13.584;2023-05-19T17:55:07;102246.06;;;20.01;36.19
23016;BME280;11674;52.428;13.584;2023-05-19T18:00:15;102253.28;;;19.94;36.28
23016;BME280;11674;52.428;13.584;2023-05-19T18:05:22;102253.00;;;19.82;36.08
23016;BME280;11674;52.428;13.584;2023-05-19T18:10:31;102242.72;;;19.64;36.41
23016;BME280;11674;52.428;13.584;2023-05-19T18:15:41;102252.09;;;19.46;36.65
23016;BME280;11674;52.428;13.584;2023-05-19T18:20:48;102251.59;;;19.44;37.02
23016;BME280;11674;52.428;13.584;2023-05-19T18:25:55;102254.31;;;19.35;36.85
23016;BME280;11674;52.428;13.584;2023-05-19T18:31:03;102253.34;;;19.26;37.40
23016;BME280;11674;52.428;13.584;2023-05-19T18:36:10;102263.41;;;19.14;37.30
23016;BME280;11674;52.428;13.584;2023-05-19T18:41:17;102269.56;;;19.02;37.56
23016;BME280;11674;52.428;13.584;2023-05-19T18:46:24;102269.13;;;18.95;37.59
23016;BME280;11674;52.428;13.584;2023-05-19T18:51:31;102266.81;;;18.84;37.81
23016;BME280;11674;52.428;13.584;2023-05-19T18:56:38;102269.28;;;18.72;38.16
23016;BME280;11674;52.428;13.584;2023-05-19T19:01:45;102276.84;;;18.58;38.49
23016;BME280;11674;52.428;13.584;2023-05-19T19:06:52;102277.09;;;18.43;38.61
23016;BME280;11674;52.428;13.584;2023-05-19T19:11:59;102275.03;;;18.30;38.76
23016;BME280;11674;52.428;13.584;2023-05-19T19:17:06;102279.13;;;18.19;38.91
23016;BME280;11674;52.428;13.584;2023-05-19T19:22:13;102275.34;;;18.10;38.93
23016;BME280;11674;52.428;13.584;2023-05-19T19:27:20;102279.13;;;18.00;39.24
23016;BME280;11674;52.428;13.584;2023-05-19T19:32:27;102277.63;;;17.89;39.72
23016;BME280;11674;52.428;13.584;2023-05-19T19:37:34;102288.13;;;17.79;40.12
23016;BME280;11674;52.428;13.584;2023-05-19T19:42:41;102286.00;;;17.71;40.07
23016;BME280;11674;52.428;13.584;2023-05-19T19:47:48;102277.09;;;17.64;40.22
23016;BME280;11674;52.428;13.584;2023-05-19T19:52:55;102283.09;;;17.57;40.80
23016;BME280;11674;52.428;13.584;2023-05-19T19:58:12;102280.59;;;17.56;40.67
23016;BME280;11674;52.428;13.584;2023-05-19T20:03:19;102295.19;;;17.53;40.94
23016;BME280;11674;52.428;13.584;2023-05-19T20:08:26;102293.06;;;17.45;41.46
23016;BME280;11674;52.428;13.584;2023-05-19T20:13:33;102285.56;;;17.35;41.17
23016;BME280;11674;52.428;13.584;2023-05-19T20:18:40;102291.84;;;17.27;41.81
23016;BME280;11674;52.428;13.584;2023-05-19T20:23:47;102303.41;;;17.21;41.78
23016;BME280;11674;52.428;13.584;2023-05-19T20:28:54;102305.13;;;17.17;42.18
23016;BME280;11674;52.428;13.584;2023-05-19T20:34:01;102309.13;;;17.11;41.95
23016;BME280;11674;52.428;13.584;2023-05-19T20:39:08;102305.25;;;17.07;42.47
23016;BME280;11674;52.428;13.584;2023-05-19T20:44:15;102311.44;;;17.04;42.28
23016;BME280;11674;52.428;13.584;2023-05-19T20:49:22;102316.53;;;17.02;42.47
23016;BME280;11674;52.428;13.584;2023-05-19T20:54:29;102313.19;;;16.95;42.58
23016;BME280;11674;52.428;13.584;2023-05-19T20:59:36;102317.84;;;16.81;42.88
23016;BME280;11674;52.428;13.584;2023-05-19T21:04:43;102327.16;;;16.71;43.05
23016;BME280;11674;52.428;13.584;2023-05-19T21:09:57;102321.41;;;16.53;43.91
23016;BME280;11674;52.428;13.584;2023-05-19T21:15:04;102313.94;;;16.43;43.53
23016;BME280;11674;52.428;13.584;2023-05-19T21:20:28;102320.16;;;16.30;44.32
23016;BME280;11674;52.428;13.584;2023-05-19T21:25:39;102331.19;;;16.17;44.36
23016;BME280;11674;52.428;13.584;2023-05-19T21:30:46;102328.72;;;16.05;44.59
23016;BME280;11674;52.428;13.584;2023-05-19T21:35:54;102326.47;;;16.02;44.94
23016;BME280;11674;52.428;13.584;2023-05-19T21:41:01;102337.41;;;15.99;45.08
23016;BME280;11674;52.428;13.584;2023-05-19T21:46:08;102335.22;;;15.91;44.83
23016;BME280;11674;52.428;13.584;2023-05-19T21:51:15;102344.22;;;15.78;45.54
23016;BME280;11674;52.428;13.584;2023-05-19T21:56:22;102347.69;;;15.60;45.68
23016;BME280;11674;52.428;13.584;2023-05-19T22:01:29;102348.56;;;15.50;46.02
23016;BME280;11674;52.428;13.584;2023-05-19T22:06:36;102352.78;;;15.43;46.06
23016;BME280;11674;52.428;13.584;2023-05-19T22:11:43;102352.78;;;15.38;46.02
23016;BME280;11674;52.428;13.584;2023-05-19T22:16:50;102348.56;;;15.30;46.26
23016;BME280;11674;52.428;13.584;2023-05-19T22:21:57;102349.69;;;15.29;46.80
23016;BME280;11674;52.428;13.584;2023-05-19T22:27:06;102344.38;;;15.23;47.01
23016;BME280;11674;52.428;13.584;2023-05-19T22:32:13;102352.53;;;15.09;46.89
23016;BME280;11674;52.428;13.584;2023-05-19T22:37:21;102350.31;;;14.96;47.76
23016;BME280;11674;52.428;13.584;2023-05-19T22:42:28;102360.63;;;14.91;47.88
23016;BME280;11674;52.428;13.584;2023-05-19T22:47:35;102357.00;;;14.90;47.74
23016;BME280;11674;52.428;13.584;2023-05-19T22:52:42;102362.88;;;14.89;48.06
23016;BME280;11674;52.428;13.584;2023-05-19T22:57:49;102371.81;;;14.86;48.35
23016;BME280;11674;52.428;13.584;2023-05-19T23:02:56;102367.63;;;14.78;48.28
23016;BME280;11674;52.428;13.584;2023-05-19T23:08:03;102370.69;;;14.62;49.17
23016;BME280;11674;52.428;13.584;2023-05-19T23:13:10;102367.31;;;14.55;49.10
23016;BME280;11674;52.428;13.584;2023-05-19T23:18:17;102366.75;;;14.43;49.67
23016;BME280;11674;52.428;13.584;2023-05-19T23:23:24;102358.34;;;14.33;49.66
23016;BME280;11674;52.428;13.584;2023-05-19T23:28:31;102367.56;;;14.23;50.00
23016;BME280;11674;52.428;13.584;2023-05-19T23:33:38;102349.34;;;14.11;50.45
23016;BME280;11674;52.428;13.584;2023-05-19T23:38:45;102347.06;;;13.98;51.01
23016;BME280;11674;52.428;13.584;2023-05-19T23:43:52;102351.22;;;13.85;51.46
23016;BME280;11674;52.428;13.584;2023-05-19T23:48:59;102344.22;;;13.78;51.80
23016;BME280;11674;52.428;13.584;2023-05-19T23:54:06;102343.91;;;13.74;51.85
23016;BME280;11674;52.428;13.584;2023-05-19T23:59:13;102344.19;;;13.73;51.75
